createdAt,value
2017-11-07T00:00:26.994Z,37.57
2017-11-07T00:02:54.500Z,43.03
2017-11-07T00:05:22.075Z,40.23
2017-11-07T00:07:49.631Z,46.80
2017-11-07T00:10:17.850Z,37.63
2017-11-07T00:12:45.432Z,40.50
2017-11-07T00:15:13.656Z,38.57
2017-11-07T00:17:41.200Z,46.97
2017-11-07T00:20:08.781Z,42.10
2017-11-07T00:22:36.272Z,45.07
2017-11-07T00:25:04.508Z,43.60
2017-11-07T00:27:32.857Z,47.27
2017-11-07T00:30:01.296Z,50.60
2017-11-07T00:32:30.656Z,46.17
2017-11-07T00:34:58.900Z,59.10
2017-11-07T00:37:26.388Z,50.17
2017-11-07T00:39:54.734Z,53.20
2017-11-07T00:42:22.982Z,61.07
2017-11-07T00:44:50.460Z,45.93
2017-11-07T00:47:18.728Z,56.63
2017-11-07T00:49:46.269Z,52.37
2017-11-07T00:52:13.769Z,52.07
2017-11-07T00:54:42.111Z,52.40
2017-11-07T00:57:09.567Z,59.33
2017-11-07T00:59:38.072Z,60.23
2017-11-07T01:02:05.655Z,51.30
2017-11-07T01:04:33.961Z,54.17
2017-11-07T01:07:02.203Z,49.67
2017-11-07T01:09:30.578Z,54.77
2017-11-07T01:11:58.069Z,53.40
2017-11-07T01:14:25.529Z,56.07
2017-11-07T01:16:53.091Z,57.27
2017-11-07T01:19:21.394Z,57.17
2017-11-07T01:21:48.857Z,52.80
2017-11-07T01:24:16.428Z,54.27
2017-11-07T01:26:43.979Z,58.77
2017-11-07T01:29:12.211Z,62.00
2017-11-07T01:31:39.880Z,56.80
2017-11-07T01:34:07.345Z,58.77
2017-11-07T01:36:34.879Z,59.70
2017-11-07T01:39:03.258Z,65.47
2017-11-07T01:41:32.226Z,66.87
2017-11-07T01:43:59.685Z,70.03
2017-11-07T01:46:28.008Z,66.37
2017-11-07T01:48:55.476Z,74.10
2017-11-07T01:51:23.720Z,62.07
2017-11-07T01:53:51.250Z,71.80
2017-11-07T01:56:18.716Z,73.30
2017-11-07T01:58:46.293Z,69.43
2017-11-07T02:01:13.797Z,67.10
2017-11-07T02:03:41.278Z,73.47
2017-11-07T02:06:08.838Z,72.70
2017-11-07T02:08:36.321Z,68.33
2017-11-07T02:11:03.796Z,67.40
2017-11-07T02:13:31.425Z,75.80
2017-11-07T02:15:59.725Z,81.20
2017-11-07T02:18:27.196Z,73.33
2017-11-07T02:20:54.763Z,79.97
2017-11-07T02:23:22.234Z,68.30
2017-11-07T02:25:49.736Z,79.13
2017-11-07T02:28:18.061Z,57.67
2017-11-07T02:30:45.551Z,70.13
2017-11-07T02:33:13.020Z,71.97
2017-11-07T02:35:40.561Z,71.87
2017-11-07T02:38:08.032Z,86.20
2017-11-07T02:40:35.525Z,77.07
2017-11-07T02:43:03.831Z,74.30
2017-11-07T02:45:32.083Z,77.13
2017-11-07T02:50:21.972Z,70.73
2017-11-07T02:52:49.540Z,82.73
2017-11-07T02:55:17.119Z,86.30
2017-11-07T02:57:44.599Z,85.20
2017-11-07T03:00:12.065Z,79.97
2017-11-07T03:02:39.644Z,90.53
2017-11-07T03:05:07.129Z,86.77
2017-11-07T03:07:34.605Z,86.60
2017-11-07T03:10:02.161Z,77.03
2017-11-07T03:12:30.522Z,75.10
2017-11-07T03:14:58.811Z,76.80
2017-11-07T03:17:26.285Z,79.23
2017-11-07T03:19:54.585Z,94.90
2017-11-07T03:22:22.054Z,80.80
2017-11-07T03:24:50.385Z,79.90
2017-11-07T03:27:18.626Z,82.30
2017-11-07T03:29:46.099Z,71.40
2017-11-07T03:32:14.768Z,80.87
2017-11-07T03:34:43.017Z,76.47
2017-11-07T03:37:10.489Z,73.50
2017-11-07T03:39:38.029Z,70.90
2017-11-07T03:42:05.514Z,63.47
2017-11-07T03:44:33.768Z,75.10
2017-11-07T03:47:01.712Z,80.50
2017-11-07T03:49:30.716Z,71.67
2017-11-07T03:51:58.216Z,72.80
2017-11-07T03:54:26.545Z,56.60
2017-11-07T03:56:54.807Z,69.23
2017-11-07T03:59:22.365Z,67.80
2017-11-07T04:01:49.868Z,85.77
2017-11-07T04:04:17.345Z,75.17
2017-11-07T04:06:44.868Z,63.03
2017-11-07T04:09:12.341Z,80.03
2017-11-07T04:11:40.652Z,69.87
2017-11-07T04:14:08.239Z,73.23
2017-11-07T04:16:36.461Z,73.97
2017-11-07T04:19:04.030Z,61.00
2017-11-07T04:21:32.411Z,81.73
2017-11-07T04:24:00.714Z,79.43
2017-11-07T04:26:28.978Z,75.63
2017-11-07T04:28:56.890Z,75.93
2017-11-07T04:31:25.150Z,69.30
2017-11-07T04:33:52.676Z,83.90
2017-11-07T04:36:20.548Z,74.37
2017-11-07T04:38:48.022Z,81.23
2017-11-07T04:41:15.493Z,73.53
2017-11-07T04:43:43.167Z,88.73
2017-11-07T04:46:11.414Z,78.90
2017-11-07T04:48:38.886Z,81.57
2017-11-07T04:51:06.429Z,91.87
2017-11-07T04:53:34.716Z,74.20
2017-11-07T04:56:03.074Z,91.03
2017-11-07T04:58:30.563Z,82.47
2017-11-07T05:00:58.146Z,83.40
2017-11-07T05:03:25.743Z,96.27
2017-11-07T05:05:53.260Z,87.33
2017-11-07T05:08:20.796Z,95.20
2017-11-07T05:10:48.402Z,82.00
2017-11-07T05:13:15.914Z,81.83
2017-11-07T05:15:43.403Z,93.20
2017-11-07T05:18:10.977Z,87.30
2017-11-07T05:20:38.476Z,74.07
2017-11-07T05:23:05.961Z,117.87
2017-11-07T05:25:33.513Z,78.07
2017-11-07T05:28:00.983Z,95.00
2017-11-07T05:30:28.549Z,93.83
2017-11-07T05:32:56.815Z,99.17
2017-11-07T05:35:24.337Z,91.40
2017-11-07T05:37:51.858Z,91.80
2017-11-07T05:40:19.347Z,97.80
2017-11-07T05:42:46.915Z,88.50
2017-11-07T05:45:14.399Z,93.90
2017-11-07T05:47:41.864Z,80.27
2017-11-07T05:50:09.429Z,73.50
2017-11-07T05:52:37.698Z,92.00
2017-11-07T05:55:05.157Z,97.67
2017-11-07T05:57:32.903Z,95.40
2017-11-07T06:00:01.163Z,78.10
2017-11-07T06:02:28.641Z,72.13
2017-11-07T06:04:56.209Z,71.10
2017-11-07T06:07:23.685Z,71.97
2017-11-07T06:09:51.174Z,81.33
2017-11-07T06:12:18.743Z,57.10
2017-11-07T06:14:46.377Z,78.40
2017-11-07T06:17:13.865Z,75.73
2017-11-07T06:19:41.435Z,53.53
2017-11-07T06:22:08.947Z,69.93
2017-11-07T06:24:36.497Z,53.30
2017-11-07T06:27:04.246Z,61.10
2017-11-07T06:29:31.863Z,64.93
2017-11-07T06:31:59.570Z,58.67
2017-11-07T06:34:27.177Z,79.97
2017-11-07T06:36:54.680Z,87.67
2017-11-07T06:39:23.017Z,80.83
2017-11-07T06:41:50.509Z,68.23
2017-11-07T06:44:17.984Z,65.27
2017-11-07T06:46:45.567Z,62.60
2017-11-07T06:49:13.220Z,69.73
2017-11-07T06:51:41.490Z,63.63
2017-11-07T06:54:09.366Z,71.17
2017-11-07T06:56:36.843Z,63.97
2017-11-07T06:59:04.337Z,55.10
2017-11-07T07:01:31.945Z,53.47
2017-11-07T07:06:22.831Z,60.00
2017-11-07T07:08:51.068Z,47.87
2017-11-07T07:11:19.329Z,55.70
2017-11-07T07:13:47.691Z,66.00
2017-11-07T07:16:15.155Z,55.33
2017-11-07T07:18:42.626Z,62.37
2017-11-07T07:21:10.938Z,60.53
2017-11-07T07:23:39.179Z,66.40
2017-11-07T07:26:06.656Z,61.67
2017-11-07T07:28:34.259Z,67.20
2017-11-07T07:31:01.854Z,67.37
2017-11-07T07:33:30.447Z,70.57
2017-11-07T07:35:58.047Z,68.97
2017-11-07T07:38:25.613Z,68.23
2017-11-07T07:40:53.106Z,67.20
2017-11-07T07:43:20.768Z,60.93
2017-11-07T07:45:48.241Z,69.23
2017-11-07T07:48:16.494Z,77.50
2017-11-07T07:50:44.872Z,70.57
2017-11-07T07:53:12.351Z,64.03
2017-11-07T07:55:39.844Z,73.00
2017-11-07T07:58:07.434Z,72.23
2017-11-07T08:00:34.938Z,73.87
2017-11-07T08:03:02.424Z,74.00
2017-11-07T08:05:29.991Z,64.73
2017-11-07T08:07:57.811Z,68.23
2017-11-07T08:10:25.290Z,70.00
2017-11-07T08:12:52.892Z,73.37
2017-11-07T08:15:20.384Z,59.53
2017-11-07T08:17:47.867Z,60.93
2017-11-07T08:20:15.453Z,75.43
2017-11-07T08:22:42.917Z,68.33
2017-11-07T08:25:10.391Z,72.27
2017-11-07T08:27:39.960Z,70.43
2017-11-07T08:30:07.442Z,69.37
2017-11-07T08:32:34.948Z,75.87
2017-11-07T08:35:03.293Z,70.03
2017-11-07T08:37:30.761Z,66.70
2017-11-07T08:42:38.344Z,65.93
2017-11-07T08:45:05.839Z,59.53
2017-11-07T08:47:34.184Z,62.50
2017-11-07T08:50:01.767Z,69.90
2017-11-07T08:52:30.014Z,69.57
2017-11-07T08:54:57.554Z,68.87
2017-11-07T08:57:25.103Z,67.63
2017-11-07T08:59:53.370Z,71.43
2017-11-07T09:02:21.195Z,62.73
2017-11-07T09:04:48.689Z,58.10
2017-11-07T09:07:17.037Z,59.50
2017-11-07T09:09:44.616Z,50.43
2017-11-07T09:12:12.883Z,53.60
2017-11-07T09:14:41.360Z,52.90
2017-11-07T09:17:15.621Z,48.93
2017-11-07T09:19:43.880Z,46.73
2017-11-07T09:22:11.405Z,45.40
2017-11-07T09:24:39.681Z,49.67
2017-11-07T09:27:07.401Z,46.23
2017-11-07T09:29:42.466Z,49.47
2017-11-07T09:32:10.857Z,61.70
2017-11-07T09:34:39.112Z,51.23
2017-11-07T09:37:06.582Z,53.33
2017-11-07T09:39:34.932Z,51.13
2017-11-07T09:42:03.251Z,49.20
2017-11-07T09:44:30.767Z,50.43
2017-11-07T09:46:59.799Z,52.67
2017-11-07T09:49:28.504Z,49.20
2017-11-07T09:51:56.775Z,50.87
2017-11-07T09:54:24.256Z,51.20
2017-11-07T09:59:32.602Z,54.10
2017-11-07T10:02:00.592Z,55.73
2017-11-07T10:04:28.088Z,53.53
2017-11-07T10:09:35.363Z,62.70
2017-11-07T10:12:03.682Z,65.20
2017-11-07T10:17:09.735Z,77.77
2017-11-07T10:19:37.236Z,62.90
2017-11-07T10:22:04.784Z,69.07
2017-11-07T10:24:33.469Z,78.73
2017-11-07T10:27:01.953Z,79.37
2017-11-07T10:32:08.286Z,79.77
2017-11-07T10:34:35.889Z,68.43
2017-11-07T10:37:04.170Z,88.97
2017-11-07T10:39:31.812Z,82.80
2017-11-07T10:41:59.360Z,93.47
2017-11-07T10:44:26.858Z,80.40
2017-11-07T10:46:55.319Z,81.97
2017-11-07T10:49:22.901Z,80.47
2017-11-07T10:51:50.401Z,78.53
2017-11-07T10:54:17.971Z,77.83
2017-11-07T10:56:45.454Z,70.07
2017-11-07T10:59:13.051Z,76.53
2017-11-07T11:01:40.665Z,92.70
2017-11-07T11:04:08.362Z,73.20
2017-11-07T11:06:35.932Z,79.67
2017-11-07T11:09:03.623Z,68.97
2017-11-07T11:11:31.109Z,66.07
2017-11-07T11:13:58.581Z,73.73
2017-11-07T11:16:26.252Z,64.80
2017-11-07T11:18:53.776Z,74.40
2017-11-07T11:21:21.260Z,80.40
2017-11-07T11:23:49.570Z,70.80
2017-11-07T11:26:18.968Z,63.73
2017-11-07T11:28:47.232Z,70.20
2017-11-07T11:31:16.332Z,71.00
2017-11-07T11:33:45.084Z,69.73
2017-11-07T11:36:13.114Z,74.00
2017-11-07T11:38:40.803Z,65.53
2017-11-07T11:41:08.471Z,70.20
2017-11-07T11:43:35.950Z,69.83
2017-11-07T11:46:04.182Z,61.77
2017-11-07T11:48:31.772Z,71.53
2017-11-07T11:50:59.247Z,66.20
2017-11-07T11:53:26.723Z,62.60
2017-11-07T11:55:55.069Z,71.23
2017-11-07T11:58:22.712Z,75.67
2017-11-07T12:00:50.326Z,66.70
2017-11-07T12:03:18.696Z,65.03
2017-11-07T12:05:47.327Z,67.67
2017-11-07T12:08:14.798Z,81.17
2017-11-07T12:10:42.373Z,66.17
2017-11-07T12:13:09.960Z,64.07
2017-11-07T12:15:37.478Z,71.83
2017-11-07T12:18:06.236Z,69.80
2017-11-07T12:20:34.252Z,70.53
2017-11-07T12:23:02.754Z,75.83
2017-11-07T12:25:30.738Z,82.80
2017-11-07T12:27:58.214Z,76.50
2017-11-07T12:30:26.475Z,70.43
2017-11-07T12:32:54.041Z,67.70
2017-11-07T12:35:21.519Z,72.87
2017-11-07T12:37:49.046Z,78.90
2017-11-07T12:40:16.638Z,71.23
2017-11-07T12:42:44.216Z,74.23
2017-11-07T12:45:11.739Z,74.27
2017-11-07T12:47:39.771Z,74.67
2017-11-07T12:50:19.071Z,67.60
2017-11-07T12:52:46.644Z,71.77
2017-11-07T12:55:14.122Z,76.20
2017-11-07T12:57:41.598Z,77.70
2017-11-07T13:00:09.177Z,77.00
2017-11-07T13:02:36.756Z,78.23
2017-11-07T13:05:04.262Z,75.17
2017-11-07T13:07:32.305Z,71.50
2017-11-07T13:09:59.882Z,82.63
2017-11-07T13:12:27.380Z,73.20
2017-11-07T13:14:55.813Z,77.03
2017-11-07T13:17:23.427Z,83.53
2017-11-07T13:19:50.900Z,72.40
2017-11-07T13:22:18.858Z,74.70
2017-11-07T13:27:21.335Z,84.77
2017-11-07T13:29:48.838Z,69.40
2017-11-07T13:32:17.189Z,78.53
2017-11-07T13:34:44.716Z,79.57
2017-11-07T13:37:12.961Z,78.17
2017-11-07T13:39:40.554Z,85.53
2017-11-07T13:42:08.165Z,90.07
2017-11-07T13:44:35.825Z,82.23
2017-11-07T13:47:03.322Z,81.10
2017-11-07T13:49:30.812Z,99.00
2017-11-07T13:51:58.375Z,75.27
2017-11-07T13:54:25.850Z,71.40
2017-11-07T13:56:53.377Z,77.13
2017-11-07T13:59:22.008Z,86.90
2017-11-07T14:01:49.552Z,81.57
2017-11-07T14:04:18.465Z,76.43
2017-11-07T14:06:45.964Z,73.17
2017-11-07T14:09:14.284Z,79.60
2017-11-07T14:11:42.214Z,86.97
2017-11-07T14:14:09.697Z,83.00
2017-11-07T14:16:37.171Z,80.03
2017-11-07T14:19:05.558Z,79.87
2017-11-07T14:21:33.144Z,77.90
2017-11-07T14:24:00.607Z,80.27
2017-11-07T14:26:28.172Z,82.57
2017-11-07T14:28:55.636Z,80.13
2017-11-07T14:31:23.191Z,86.83
2017-11-07T14:33:57.584Z,83.97
2017-11-07T14:36:25.143Z,79.17
2017-11-07T14:38:52.679Z,83.90
2017-11-07T14:41:20.353Z,78.20
2017-11-07T14:43:47.825Z,75.43
2017-11-07T14:46:17.017Z,71.17
2017-11-07T14:48:51.747Z,79.77
2017-11-07T14:51:19.267Z,71.33
2017-11-07T14:53:46.806Z,73.20
2017-11-07T14:56:14.748Z,77.10
2017-11-07T14:58:42.374Z,74.30
2017-11-07T15:01:11.021Z,75.00
2017-11-07T15:03:38.646Z,76.33
2017-11-07T15:06:06.905Z,76.20
2017-11-07T15:08:34.659Z,80.03
2017-11-07T15:11:02.557Z,72.37
2017-11-07T15:13:30.845Z,62.67
2017-11-07T15:15:58.345Z,69.20
2017-11-07T15:18:26.050Z,70.73
2017-11-07T15:20:53.513Z,75.70
2017-11-07T15:23:21.123Z,67.10
2017-11-07T15:25:48.620Z,73.77
2017-11-07T15:28:16.185Z,77.63
2017-11-07T15:30:43.653Z,77.83
2017-11-07T15:33:12.201Z,75.87
2017-11-07T15:35:40.186Z,72.63
2017-11-07T15:38:07.676Z,81.70
2017-11-07T15:40:35.203Z,80.43
2017-11-07T15:43:04.649Z,82.90
2017-11-07T15:45:32.943Z,78.93
2017-11-07T15:48:00.547Z,85.20
2017-11-07T15:50:28.225Z,79.57
2017-11-07T15:52:56.492Z,80.27
2017-11-07T15:55:24.880Z,76.10
2017-11-07T15:57:52.488Z,71.97
2017-11-07T16:00:20.239Z,78.37
2017-11-07T16:02:48.559Z,71.97
2017-11-07T16:05:16.897Z,81.13
2017-11-07T16:07:44.490Z,77.87
2017-11-07T16:10:12.039Z,74.80
2017-11-07T16:12:40.504Z,81.70
2017-11-07T16:15:07.994Z,70.27
2017-11-07T16:17:35.492Z,73.50
2017-11-07T16:20:03.078Z,72.90
2017-11-07T16:22:30.740Z,74.03
2017-11-07T16:24:58.324Z,71.00
2017-11-07T16:27:25.899Z,73.33
2017-11-07T16:29:53.432Z,79.40
2017-11-07T16:32:20.918Z,74.43
2017-11-07T16:34:48.581Z,78.87
2017-11-07T16:37:16.092Z,79.77
2017-11-07T16:39:43.594Z,77.87
2017-11-07T16:42:11.146Z,77.50
2017-11-07T16:44:38.605Z,82.53
2017-11-07T16:47:06.109Z,79.87
2017-11-07T16:49:34.447Z,82.77
2017-11-07T16:52:01.939Z,75.73
2017-11-07T16:54:29.439Z,75.33
2017-11-07T16:56:57.231Z,76.73
2017-11-07T16:59:24.719Z,75.97
2017-11-07T17:01:52.196Z,84.20
2017-11-07T17:04:19.764Z,80.00
2017-11-07T17:06:47.423Z,77.70
2017-11-07T17:09:15.708Z,82.27
2017-11-07T17:11:43.236Z,81.17
2017-11-07T17:14:10.810Z,83.00
2017-11-07T17:16:38.280Z,80.57
2017-11-07T17:19:06.540Z,83.50
2017-11-07T17:21:34.129Z,78.13
2017-11-07T17:24:01.784Z,85.50
2017-11-07T17:26:29.260Z,81.47
2017-11-07T17:29:04.476Z,76.07
2017-11-07T17:31:32.768Z,77.77
2017-11-07T17:34:00.264Z,83.50
2017-11-07T17:36:28.246Z,80.70
2017-11-07T17:38:55.737Z,82.77
2017-11-07T17:41:23.248Z,89.07
2017-11-07T17:43:51.273Z,78.67
2017-11-07T17:46:18.735Z,78.30
2017-11-07T17:48:46.990Z,85.67
2017-11-07T17:51:14.926Z,76.00
2017-11-07T17:53:42.424Z,87.50
2017-11-07T17:56:09.989Z,87.60
2017-11-07T17:58:37.556Z,77.97
2017-11-07T18:01:05.073Z,82.87
2017-11-07T18:03:32.775Z,77.73
2017-11-07T18:06:00.453Z,73.63
2017-11-07T18:08:29.572Z,79.80
2017-11-07T18:10:57.191Z,83.70
2017-11-07T18:13:24.641Z,84.03
2017-11-07T18:15:52.135Z,71.73
2017-11-07T18:18:20.101Z,73.93
2017-11-07T18:20:47.757Z,73.73
2017-11-07T18:23:16.140Z,73.17
2017-11-07T18:25:43.686Z,81.87
2017-11-07T18:28:11.393Z,81.57
2017-11-07T18:30:39.713Z,82.20
2017-11-07T18:33:07.257Z,77.30
2017-11-07T18:35:34.751Z,77.77
2017-11-07T18:38:02.285Z,77.87
2017-11-07T18:40:29.768Z,82.53
2017-11-07T18:42:57.310Z,83.70
2017-11-07T18:45:24.816Z,85.67
2017-11-07T18:47:52.354Z,81.10
2017-11-07T18:50:20.380Z,86.63
2017-11-07T18:52:47.983Z,84.10
2017-11-07T18:55:15.643Z,84.40
2017-11-07T18:57:43.406Z,81.97
2017-11-07T19:00:10.948Z,86.60
2017-11-07T19:02:39.219Z,86.10
2017-11-07T19:05:07.218Z,81.77
2017-11-07T19:07:34.696Z,85.63
2017-11-07T19:10:02.174Z,85.03
2017-11-07T19:12:29.807Z,88.23
2017-11-07T19:14:58.045Z,83.07
2017-11-07T19:17:25.534Z,77.93
2017-11-07T19:19:53.152Z,76.13
2017-11-07T19:22:21.445Z,76.23
2017-11-07T19:24:48.940Z,70.67
2017-11-07T19:27:16.842Z,72.80
2017-11-07T19:29:44.313Z,73.17
2017-11-07T19:32:11.872Z,71.30
2017-11-07T19:34:39.453Z,76.40
2017-11-07T19:37:07.032Z,79.53
2017-11-07T19:39:34.551Z,78.20
2017-11-07T19:42:02.120Z,70.30
2017-11-07T19:44:29.739Z,75.83
2017-11-07T19:46:57.975Z,68.67
2017-11-07T19:49:25.859Z,72.73
2017-11-07T19:51:53.331Z,67.97
2017-11-07T19:54:21.887Z,70.50
2017-11-07T19:56:49.415Z,72.47
2017-11-07T19:59:16.954Z,73.30
2017-11-07T20:01:44.544Z,83.07
2017-11-07T20:04:12.021Z,81.43
2017-11-07T20:06:39.507Z,78.47
2017-11-07T20:09:07.037Z,75.53
2017-11-07T20:11:34.962Z,79.27
2017-11-07T20:14:02.492Z,87.40
2017-11-07T20:16:29.984Z,87.30
2017-11-07T20:18:58.418Z,89.30
2017-11-07T20:21:27.635Z,100.53
2017-11-07T20:23:55.930Z,99.33
2017-11-07T20:26:23.423Z,102.40
2017-11-07T20:28:50.933Z,94.10
2017-11-07T20:31:18.512Z,84.13
2017-11-07T20:33:46.052Z,89.43
2017-11-07T20:36:13.580Z,88.43
2017-11-07T20:38:41.171Z,89.80
2017-11-07T20:41:08.701Z,84.67
2017-11-07T20:43:36.985Z,85.23
2017-11-07T20:46:05.233Z,92.13
2017-11-07T20:48:33.636Z,89.37
2017-11-07T20:51:01.129Z,84.70
2017-11-07T20:53:28.627Z,86.40
2017-11-07T20:55:56.176Z,80.97
2017-11-07T20:58:24.170Z,85.33
2017-11-07T21:00:51.727Z,86.77
2017-11-07T21:03:19.194Z,83.40
2017-11-07T21:05:47.468Z,77.40
2017-11-07T21:08:14.936Z,78.97
2017-11-07T21:10:45.139Z,72.33
2017-11-07T21:13:12.635Z,68.50
2017-11-07T21:15:42.068Z,81.23
2017-11-07T21:18:09.736Z,75.57
2017-11-07T21:20:37.240Z,83.63
2017-11-07T21:23:04.744Z,75.13
2017-11-07T21:25:33.224Z,77.43
2017-11-07T21:28:00.713Z,76.60
2017-11-07T21:30:28.189Z,77.40
2017-11-07T21:32:59.086Z,66.53
2017-11-07T21:35:26.582Z,67.47
2017-11-07T21:37:54.890Z,58.67
2017-11-07T21:40:22.359Z,66.90
2017-11-07T21:42:49.826Z,50.13
2017-11-07T21:45:17.334Z,56.07
2017-11-07T21:47:45.770Z,51.27
2017-11-07T21:50:13.243Z,51.17
2017-11-07T21:52:41.627Z,50.23
2017-11-07T21:55:09.853Z,58.53
2017-11-07T21:57:37.327Z,48.47
2017-11-07T22:00:05.526Z,51.30
2017-11-07T22:02:35.749Z,53.07
2017-11-07T22:05:04.040Z,48.63
2017-11-07T22:07:32.336Z,50.97
2017-11-07T22:10:02.797Z,50.50
2017-11-07T22:12:30.294Z,49.17
2017-11-07T22:14:58.506Z,47.30
2017-11-07T22:17:29.076Z,47.30
2017-11-07T22:19:56.557Z,45.20
2017-11-07T22:22:24.876Z,49.73
2017-11-07T22:24:52.368Z,47.83
2017-11-07T22:27:19.943Z,43.53
2017-11-07T22:29:48.219Z,45.27
2017-11-07T22:32:16.523Z,45.10
2017-11-07T22:34:43.992Z,43.13
2017-11-07T22:37:12.380Z,51.67
2017-11-07T22:39:41.367Z,44.53
2017-11-07T22:42:09.619Z,41.13
2017-11-07T22:44:37.122Z,44.10
2017-11-07T22:47:04.611Z,40.27
2017-11-07T22:49:33.026Z,35.87
2017-11-07T22:52:00.591Z,40.93
2017-11-07T22:54:28.073Z,41.27
2017-11-07T22:56:55.583Z,41.63
2017-11-07T22:59:24.049Z,42.13
2017-11-07T23:01:51.598Z,37.93
2017-11-07T23:04:19.149Z,40.63
2017-11-07T23:06:47.428Z,43.07
2017-11-07T23:09:15.667Z,41.90
2017-11-07T23:11:43.313Z,44.80
2017-11-07T23:14:10.991Z,42.73
2017-11-07T23:16:38.540Z,36.17
2017-11-07T23:19:06.028Z,41.97
2017-11-07T23:21:35.738Z,45.33
2017-11-07T23:24:04.055Z,41.70
2017-11-07T23:26:31.758Z,42.50
2017-11-07T23:28:59.389Z,46.03
2017-11-07T23:31:26.860Z,44.13
2017-11-07T23:33:55.377Z,41.00
2017-11-07T23:36:23.712Z,44.53
2017-11-07T23:38:51.174Z,47.13
2017-11-07T23:41:18.648Z,40.53
2017-11-07T23:43:47.012Z,41.87
2017-11-07T23:46:14.486Z,40.13
2017-11-07T23:48:42.078Z,43.30
2017-11-07T23:51:10.428Z,38.00
2017-11-07T23:53:38.042Z,44.53
2017-11-07T23:56:05.521Z,43.57
2017-11-07T23:58:39.958Z,39.37
